This is the latest recevied weather packets stored in our database for station/object N7SHZ. If no packets are shown the sender has not sent any weather packets the latest 1 day(s).
| Time | Temp. | Humidity | Pressure | Rain* | Wind** | Luminosity | Snow |
|---|---|---|---|---|---|---|---|
| 1777988699 | -1.67° C | 99% | 1027.5 hPa | - | 5.81 m/s, 100° | 6 W/m² | - |
| 1777988395 | -1.67° C | 99% | 1027.3 hPa | - | 5.81 m/s, 109° | 6 W/m² | - |
| 1777988093 | -1.11° C | 99% | 1027.3 hPa | - | 7.15 m/s, 104° | 4 W/m² | - |
| 1777987788 | -1.11° C | 99% | 1027.3 hPa | - | 4.47 m/s, 104° | 4 W/m² | - |
| 1777987485 | -1.11° C | 99% | 1027.4 hPa | - | 7.15 m/s, 104° | 6 W/m² | - |
| 1777987183 | -1.11° C | 99% | 1026.9 hPa | - | 7.15 m/s, 105° | 6 W/m² | - |
| 1777986879 | -1.11° C | 99% | 1027.4 hPa | - | 4.47 m/s, 93° | 5 W/m² | - |
| 1777986577 | -1.11° C | 99% | 1027.1 hPa | - | 5.36 m/s, 104° | 4 W/m² | - |
| 1777986275 | -1.11° C | 99% | 1026.7 hPa | - | 5.81 m/s, 113° | 7 W/m² | - |
| 1777985973 | -1.11° C | 99% | 1027.1 hPa | - | 5.81 m/s, 100° | 10 W/m² | - |
| 1777985670 | -1.11° C | 99% | 1026.9 hPa | - | 6.71 m/s, 99° | 13 W/m² | - |
| 1777985366 | -0.56° C | 99% | 1027 hPa | - | 6.26 m/s, 107° | 9 W/m² | - |
| 1777985063 | -0.56° C | 99% | 1027 hPa | - | 7.6 m/s, 99° | 7 W/m² | - |
| 1777984759 | -0.56° C | 99% | 1026.9 hPa | - | 6.71 m/s, 103° | 6 W/m² | - |
| 1777984451 | -0.56° C | 98% | 1026.9 hPa | - | 8.49 m/s, 96° | 5 W/m² | - |
| 1777984146 | -0.56° C | 98% | 1026.7 hPa | - | 7.6 m/s, 97° | 4 W/m² | - |
| 1777983844 | -0.56° C | 98% | 1026.9 hPa | - | 7.6 m/s, 100° | 3 W/m² | - |
| 1777983541 | -0.56° C | 98% | 1026.6 hPa | - | 7.15 m/s, 96° | 2 W/m² | - |
| 1777983238 | -0.56° C | 98% | 1026.6 hPa | - | 8.94 m/s, 91° | 1 W/m² | - |
| 1777982933 | -0.56° C | 98% | 1026.9 hPa | - | 8.94 m/s, 89° | 1 W/m² | - |
| 1777982630 | -0.56° C | 98% | 1026.6 hPa | - | 8.94 m/s, 87° | 0 W/m² | - |
| 1777982329 | -0.56° C | 98% | 1026.9 hPa | - | 7.6 m/s, 79° | 0 W/m² | - |
| 1777982026 | 0° C | 97% | 1027 hPa | - | 8.94 m/s, 80° | 0 W/m² | - |
| 1777981724 | 0° C | 97% | 1026.9 hPa | - | 7.15 m/s, 88° | 0 W/m² | - |
| 1777981420 | 0° C | 96% | 1026.9 hPa | - | 7.6 m/s, 78° | 0 W/m² | - |
* Rain since midnight (hover to see other rain measurements)
** Current wind speed in m/s (hover to see current wind gust speed)